Time;durP1;ratioP1;P1;durP2;ratioP2;P2;SDS_P1;SDS_P2;PMS_P1;PMS_P2;Temp;Humidity;BMP_temperature;BMP_pressure;BME280_temperature;BME280_humidity;BME280_pressure;Samples;Min_cycle;Max_cycle;Signal;HPM_P1;HPM_P2
2023/03/10 00:00:37;;;;;;;10.25;5.15;;;;;;;9.37;62.79;98781.97;4428705;32;34430;-78
2023/03/10 00:03:05;;;;;;;7.93;4.37;;;;;;;9.12;64.03;98776.81;4419202;32;33616;-78
2023/03/10 00:05:32;;;;;;;7.75;3.87;;;;;;;8.77;65.39;98782.50;4396672;32;33985;-81
2023/03/10 00:08:00;;;;;;;9.85;4.22;;;;;;;8.95;64.66;98769.34;4447114;32;33324;-80
2023/03/10 00:10:27;;;;;;;8.15;4.00;;;;;;;9.64;62.42;98760.44;4407432;32;33693;-78
2023/03/10 00:12:55;;;;;;;9.30;4.50;;;;;;;9.91;61.39;98764.69;4416993;32;33673;-79
2023/03/10 00:15:22;;;;;;;10.10;4.10;;;;;;;10.06;60.81;98765.16;4429705;32;35781;-78
2023/03/10 00:17:54;;;;;;;9.98;4.93;;;;;;;10.08;60.53;98762.62;4401132;32;33567;-80
2023/03/10 00:20:22;;;;;;;13.35;5.18;;;;;;;9.55;62.17;98768.75;4411208;32;33343;-80
2023/03/10 00:22:49;;;;;;;7.37;3.20;;;;;;;10.89;57.47;98761.50;4382605;32;33808;-80
2023/03/10 00:25:17;;;;;;;6.72;3.00;;;;;;;10.99;56.92;98766.06;4398768;32;33561;-78
2023/03/10 00:27:44;;;;;;;7.80;3.05;;;;;;;10.07;59.39;98766.06;4413096;32;33279;-79
2023/03/10 00:30:12;;;;;;;7.97;3.28;;;;;;;8.84;62.92;98768.97;4417236;32;33761;-79
2023/03/10 00:32:40;;;;;;;7.67;3.33;;;;;;;8.04;66.45;98771.19;4416983;32;33362;-77
2023/03/10 00:35:07;;;;;;;7.53;3.30;;;;;;;8.03;66.31;98761.69;4424612;32;33866;-80
2023/03/10 00:37:37;;;;;;;10.07;4.20;;;;;;;7.24;69.96;98762.91;4431377;32;33091;-76
2023/03/10 00:40:08;;;;;;;9.82;3.85;;;;;;;7.00;71.56;98754.16;4401048;32;33611;-77
2023/03/10 00:42:36;;;;;;;8.32;3.70;;;;;;;6.81;72.72;98750.78;4404134;32;34036;-79
2023/03/10 00:45:04;;;;;;;9.00;4.30;;;;;;;6.79;73.15;98751.53;4443004;32;33670;-78
2023/03/10 00:47:31;;;;;;;8.47;3.80;;;;;;;6.66;73.80;98750.13;4426888;32;33298;-80
2023/03/10 00:49:59;;;;;;;9.25;4.70;;;;;;;6.83;73.49;98736.28;4407209;32;32022;-78
2023/03/10 00:52:31;;;;;;;9.48;4.20;;;;;;;6.70;74.03;98741.72;4400119;32;33972;-76
2023/03/10 00:54:58;;;;;;;8.80;4.03;;;;;;;6.82;73.88;98742.25;4411503;32;33684;-80
2023/03/10 00:57:26;;;;;;;7.90;4.07;;;;;;;7.34;71.77;98747.78;4435504;32;33878;-77
2023/03/10 00:59:53;;;;;;;9.77;4.45;;;;;;;7.57;70.15;98738.41;4434992;32;34138;-78
2023/03/10 01:02:21;;;;;;;7.70;3.95;;;;;;;7.37;70.77;98742.78;4424589;32;33491;-77
2023/03/10 01:04:49;;;;;;;8.77;3.85;;;;;;;7.31;71.68;98738.25;4408726;32;33645;-79
2023/03/10 01:07:17;;;;;;;7.80;3.53;;;;;;;7.33;71.65;98740.91;4409751;32;33469;-77
2023/03/10 01:09:44;;;;;;;8.40;3.95;;;;;;;8.59;65.68;98725.91;4413721;32;33574;-76
2023/03/10 01:12:12;;;;;;;7.72;3.40;;;;;;;8.17;67.04;98730.38;4420966;32;33915;-78
2023/03/10 01:14:39;;;;;;;7.72;3.60;;;;;;;7.34;70.19;98732.34;4402754;32;33415;-79
2023/03/10 01:17:07;;;;;;;5.90;3.33;;;;;;;7.24;70.74;98726.84;4421938;32;33375;-80
2023/03/10 01:19:35;;;;;;;7.70;3.20;;;;;;;7.16;70.71;98717.91;4414584;32;33584;-78
2023/03/10 01:22:02;;;;;;;8.77;3.62;;;;;;;6.97;71.65;98715.38;4394305;32;33607;-80
2023/03/10 01:24:30;;;;;;;8.40;3.60;;;;;;;7.23;70.87;98714.75;4410682;32;34190;-77
2023/03/10 01:26:57;;;;;;;7.30;3.50;;;;;;;7.47;69.73;98714.88;4423155;32;33414;-78
2023/03/10 01:29:25;;;;;;;7.97;3.43;;;;;;;7.36;70.23;98704.94;4425437;32;34473;-80
2023/03/10 01:31:54;;;;;;;7.18;3.50;;;;;;;7.52;69.73;98715.03;4414598;32;34427;-79
2023/03/10 01:34:22;;;;;;;6.10;3.10;;;;;;;7.61;68.89;98705.09;4418429;32;34330;-78
2023/03/10 01:36:49;;;;;;;7.10;3.28;;;;;;;8.12;67.10;98691.53;4420376;32;33271;-76
2023/03/10 01:39:17;;;;;;;8.40;3.60;;;;;;;8.03;67.16;98697.22;4424765;32;33482;-79
2023/03/10 01:41:44;;;;;;;7.18;3.67;;;;;;;7.75;67.63;98694.44;4413950;32;33697;-81
2023/03/10 01:44:15;;;;;;;7.45;3.50;;;;;;;7.32;69.17;98692.75;4452867;32;33748;-77
2023/03/10 01:46:52;;;;;;;7.15;3.15;;;;;;;6.92;70.83;98693.75;4427532;32;32701;-81
2023/03/10 01:49:27;;;;;;;8.65;3.90;;;;;;;6.49;72.51;98687.66;4414737;32;33800;-77
2023/03/10 01:52:02;;;;;;;9.00;4.32;;;;;;;5.60;76.20;98687.12;4424369;32;34005;-78
2023/03/10 01:55:09;;;;;;;9.10;4.75;;;;;;;5.49;77.54;98683.16;4433943;32;33335;-80
2023/03/10 01:57:43;;;;;;;12.68;5.70;;;;;;;5.32;78.28;98680.66;4420927;32;32128;-77
2023/03/10 02:00:14;;;;;;;10.75;5.47;;;;;;;5.26;78.41;98677.81;4394691;32;33187;-79
2023/03/10 02:03:06;;;;;;;8.88;4.70;;;;;;;5.44;78.19;98669.22;4393770;32;34444;-79
2023/03/10 02:05:57;;;;;;;8.45;4.30;;;;;;;5.83;75.85;98664.16;4388875;32;32793;-79
2023/03/10 02:08:30;;;;;;;9.20;3.95;;;;;;;6.14;74.64;98666.41;4410663;32;32405;-79
2023/03/10 02:10:58;;;;;;;7.93;3.87;;;;;;;6.14;73.87;98670.69;4388956;32;34255;-79
2023/03/10 02:13:26;;;;;;;7.28;3.28;;;;;;;6.58;72.70;98669.16;4377123;32;33764;-78
2023/03/10 02:15:53;;;;;;;7.03;3.60;;;;;;;7.14;70.63;98652.56;4404910;32;33804;-77
2023/03/10 02:18:21;;;;;;;7.87;3.00;;;;;;;7.40;68.60;98655.31;4389803;32;33748;-80
2023/03/10 02:21:01;;;;;;;7.15;3.30;;;;;;;8.58;64.11;98651.03;4393924;32;33201;-80
2023/03/10 02:24:02;;;;;;;7.30;3.10;;;;;;;8.95;61.85;98641.94;4420337;32;32653;-79
2023/03/10 02:27:01;;;;;;;7.18;2.70;;;;;;;8.85;61.31;98646.78;4439039;32;32205;-78
2023/03/10 02:29:33;;;;;;;8.75;3.20;;;;;;;7.00;67.27;98648.59;4420526;32;32834;-80
2023/03/10 02:32:10;;;;;;;7.40;2.83;;;;;;;6.29;70.22;98645.63;4376825;32;32760;-79
2023/03/10 02:34:38;;;;;;;8.65;3.67;;;;;;;5.72;73.28;98641.41;4393675;32;33662;-79
2023/03/10 02:37:05;;;;;;;7.78;3.95;;;;;;;5.40;75.40;98641.63;4421852;32;34245;-81
2023/03/10 02:39:35;;;;;;;8.02;3.83;;;;;;;5.17;76.72;98633.72;4410001;32;33969;-78
2023/03/10 02:42:04;;;;;;;10.27;4.75;;;;;;;4.64;79.18;98650.00;4387796;32;33535;-78
2023/03/10 02:44:32;;;;;;;13.13;6.95;;;;;;;4.70;79.31;98645.16;4398786;32;33635;-80
2023/03/10 02:47:00;;;;;;;11.63;6.60;;;;;;;4.79;78.92;98635.38;4409760;32;34371;-79
2023/03/10 02:49:27;;;;;;;12.32;5.65;;;;;;;4.68;80.12;98633.94;4386888;32;33589;-77
2023/03/10 02:51:56;;;;;;;10.77;5.40;;;;;;;4.76;79.68;98635.19;4408981;32;33796;-78
2023/03/10 02:54:24;;;;;;;8.57;4.63;;;;;;;5.08;78.28;98628.16;4437990;32;33129;-78
2023/03/10 02:56:51;;;;;;;7.77;3.90;;;;;;;4.89;78.82;98627.28;4452839;32;34011;-77
2023/03/10 02:59:18;;;;;;;8.85;3.90;;;;;;;4.97;78.27;98629.34;4421043;32;32749;-78
2023/03/10 03:01:47;;;;;;;8.45;4.43;;;;;;;5.49;76.35;98612.13;4417652;32;33248;-80
2023/03/10 03:04:16;;;;;;;9.10;4.30;;;;;;;5.65;75.90;98613.69;4452879;32;33726;-79
2023/03/10 03:06:44;;;;;;;9.00;4.90;;;;;;;6.60;72.23;98611.78;4418117;32;33756;-76
2023/03/10 03:09:12;;;;;;;10.23;4.77;;;;;;;7.65;66.62;98596.16;4432670;32;33217;-77
2023/03/10 03:11:40;;;;;;;9.38;4.72;;;;;;;7.40;67.06;98601.22;4423997;32;34317;-78
2023/03/10 03:14:08;;;;;;;9.00;4.30;;;;;;;7.53;66.37;98595.69;4443988;32;34248;-81
2023/03/10 03:16:36;;;;;;;9.13;4.40;;;;;;;7.24;66.75;98587.75;4422574;32;34495;-79
2023/03/10 03:19:05;;;;;;;9.38;4.30;;;;;;;7.33;66.56;98582.06;4406403;32;33052;-77
2023/03/10 03:21:32;;;;;;;7.47;3.80;;;;;;;6.89;68.01;98587.25;4381139;32;34495;-79
2023/03/10 03:24:00;;;;;;;10.00;4.15;;;;;;;6.98;68.10;98579.00;4405472;32;33710;-78
2023/03/10 03:26:27;;;;;;;7.25;3.75;;;;;;;6.93;67.03;98579.62;4434924;32;33886;-78
2023/03/10 03:28:56;;;;;;;7.30;3.47;;;;;;;6.77;67.90;98579.03;4399463;32;33295;-80
2023/03/10 03:31:25;;;;;;;8.50;3.50;;;;;;;6.72;68.06;98565.09;4394923;32;34037;-78
2023/03/10 03:33:53;;;;;;;6.20;3.20;;;;;;;5.99;70.32;98568.97;4432066;32;33731;-78
2023/03/10 03:36:21;;;;;;;5.40;2.70;;;;;;;6.12;70.55;98564.34;4429976;32;34116;-78
2023/03/10 03:38:50;;;;;;;7.87;3.28;;;;;;;6.08;70.95;98563.31;4439680;32;34083;-79
2023/03/10 03:41:17;;;;;;;8.13;2.90;;;;;;;5.71;72.22;98551.41;4401021;32;33793;-78
2023/03/10 03:43:45;;;;;;;6.90;3.45;;;;;;;5.77;72.46;98555.94;4407663;32;33466;-79
2023/03/10 03:46:13;;;;;;;9.18;4.68;;;;;;;5.36;74.08;98547.31;4433442;32;33462;-78
2023/03/10 03:48:40;;;;;;;9.20;4.45;;;;;;;4.52;77.58;98537.44;4385468;32;34088;-80
2023/03/10 03:51:08;;;;;;;10.27;5.72;;;;;;;3.93;80.38;98554.16;4366468;32;32085;-80
2023/03/10 03:53:36;;;;;;;9.85;5.10;;;;;;;4.01;81.01;98558.00;4388152;32;34454;-77
2023/03/10 03:56:04;;;;;;;9.85;5.37;;;;;;;4.00;81.66;98546.00;4453142;32;34202;-80
2023/03/10 03:58:32;;;;;;;10.07;5.12;;;;;;;4.91;78.89;98532.44;4374680;32;33908;-77
2023/03/10 04:01:00;;;;;;;10.38;4.68;;;;;;;6.04;74.22;98533.16;4419934;32;33342;-79
2023/03/10 04:03:28;;;;;;;8.15;4.10;;;;;;;6.60;70.85;98520.88;4419682;32;33318;-79
2023/03/10 04:05:56;;;;;;;9.63;4.12;;;;;;;6.83;68.47;98512.34;4406100;32;33768;-77
2023/03/10 04:08:24;;;;;;;9.35;4.18;;;;;;;6.88;67.45;98518.56;4407916;32;33126;-78
2023/03/10 04:10:54;;;;;;;8.97;4.20;;;;;;;6.26;68.79;98511.81;4409058;32;34298;-80
2023/03/10 04:13:21;;;;;;;10.55;4.80;;;;;;;6.01;70.42;98515.06;4432490;32;33180;-80
2023/03/10 04:15:55;;;;;;;9.70;5.03;;;;;;;5.63;72.71;98515.13;4379076;32;32242;-79
2023/03/10 04:18:23;;;;;;;8.27;4.68;;;;;;;5.46;74.01;98508.38;4424506;32;32811;-80
2023/03/10 04:20:50;;;;;;;9.93;4.57;;;;;;;5.62;73.53;98497.97;4433362;32;33779;-80
2023/03/10 04:23:19;;;;;;;9.60;4.25;;;;;;;5.26;75.15;98513.50;4429458;32;33119;-79
2023/03/10 04:25:48;;;;;;;9.57;4.22;;;;;;;4.49;77.90;98509.94;4431868;32;34672;-79
2023/03/10 04:28:15;;;;;;;10.82;4.75;;;;;;;4.41;78.36;98513.84;4435047;32;33235;-77
2023/03/10 04:30:44;;;;;;;8.90;4.45;;;;;;;4.21;79.88;98520.56;4394034;32;34092;-77
2023/03/10 04:33:12;;;;;;;6.97;3.87;;;;;;;4.72;78.63;98511.03;4422717;32;33797;-80
2023/03/10 04:35:41;;;;;;;9.00;4.72;;;;;;;5.92;73.96;98502.66;4414388;32;33589;-78
2023/03/10 04:38:09;;;;;;;8.75;4.22;;;;;;;6.13;71.03;98501.81;4433439;32;31577;-81
2023/03/10 04:40:37;;;;;;;8.60;4.45;;;;;;;6.10;70.52;98500.88;4428466;32;33805;-79
2023/03/10 04:43:04;;;;;;;9.18;4.20;;;;;;;6.17;70.53;98496.88;4419848;32;33665;-77
2023/03/10 04:45:32;;;;;;;8.57;4.30;;;;;;;6.35;69.10;98496.72;4421622;32;34439;-79
2023/03/10 04:47:59;;;;;;;11.43;5.20;;;;;;;6.17;69.16;98496.00;4452871;32;33021;-79
2023/03/10 04:50:27;;;;;;;10.35;6.00;;;;;;;5.52;71.48;98493.22;4403413;32;34385;-78
2023/03/10 04:52:55;;;;;;;14.33;6.27;;;;;;;4.86;74.36;98496.28;4385017;32;33890;-79
2023/03/10 04:55:23;;;;;;;12.48;5.90;;;;;;;4.87;75.05;98494.63;4376079;32;34099;-80
2023/03/10 04:57:50;;;;;;;10.82;5.55;;;;;;;5.77;71.61;98495.16;4400215;32;34132;-78
2023/03/10 05:00:18;;;;;;;11.47;5.67;;;;;;;5.99;70.51;98494.41;4400102;32;33768;-78
2023/03/10 05:02:47;;;;;;;10.73;6.00;;;;;;;6.04;69.96;98485.19;4408238;32;34585;-77
2023/03/10 05:05:15;;;;;;;12.40;6.28;;;;;;;6.24;69.01;98487.72;4420347;32;33991;-78
2023/03/10 05:07:42;;;;;;;12.35;6.62;;;;;;;6.63;67.13;98477.25;4385792;32;34170;-77
2023/03/10 05:10:11;;;;;;;12.10;5.85;;;;;;;7.04;64.54;98476.25;4396648;32;33161;-79
2023/03/10 05:12:41;;;;;;;10.38;5.43;;;;;;;6.55;66.07;98468.34;4407385;32;33457;-78
2023/03/10 05:15:09;;;;;;;10.68;5.40;;;;;;;6.19;67.29;98468.66;4431819;32;33132;-79
2023/03/10 05:17:37;;;;;;;16.62;8.88;;;;;;;5.36;69.91;98467.69;4419493;32;33459;-77
2023/03/10 05:20:08;;;;;;;14.27;8.48;;;;;;;4.90;72.36;98472.50;4442368;32;34319;-80
2023/03/10 05:22:37;;;;;;;10.07;5.70;;;;;;;4.67;74.11;98465.44;4394782;32;33594;-78
2023/03/10 05:25:08;;;;;;;10.20;5.00;;;;;;;5.44;71.70;98468.91;4441840;32;33501;-80
2023/03/10 05:27:37;;;;;;;11.40;5.47;;;;;;;5.11;72.37;98469.16;4370197;32;33166;-78
2023/03/10 05:30:07;;;;;;;10.83;5.77;;;;;;;4.48;75.74;98464.62;4445159;32;33821;-79
2023/03/10 05:32:36;;;;;;;11.30;5.65;;;;;;;4.42;77.11;98464.28;4393677;32;33603;-80
2023/03/10 05:35:04;;;;;;;11.40;5.27;;;;;;;4.93;75.97;98454.69;4437689;32;34196;-80
2023/03/10 05:37:38;;;;;;;12.43;6.70;;;;;;;5.55;72.97;98452.28;4406684;32;33085;-79
2023/03/10 05:40:07;;;;;;;12.02;6.57;;;;;;;6.76;67.39;98442.56;4386477;32;33088;-79
2023/03/10 05:42:35;;;;;;;11.18;5.95;;;;;;;5.90;70.73;98443.47;4415253;32;34706;-78
2023/03/10 05:45:04;;;;;;;11.85;5.60;;;;;;;5.69;71.55;98448.59;4414565;32;33246;-77
2023/03/10 05:47:32;;;;;;;9.35;4.93;;;;;;;4.98;74.85;98442.06;4416055;32;33209;-80
2023/03/10 05:50:00;;;;;;;11.47;6.57;;;;;;;4.63;77.18;98433.66;4449339;32;33670;-78
2023/03/10 05:52:29;;;;;;;14.47;7.77;;;;;;;4.58;77.62;98429.13;4391259;32;34038;-76
2023/03/10 05:54:56;;;;;;;15.32;7.60;;;;;;;5.09;75.88;98434.84;4399774;32;34283;-77
2023/03/10 05:57:24;;;;;;;15.95;7.80;;;;;;;5.00;76.47;98434.44;4425370;32;34206;-77
2023/03/10 05:59:51;;;;;;;15.88;7.60;;;;;;;5.13;76.39;98435.06;4412924;32;34283;-78
2023/03/10 06:02:19;;;;;;;15.30;7.60;;;;;;;5.14;76.72;98430.81;4382281;32;34259;-80
2023/03/10 06:04:47;;;;;;;16.57;7.53;;;;;;;5.23;76.71;98427.75;4390179;32;32662;-79
2023/03/10 06:07:14;;;;;;;12.25;7.15;;;;;;;4.99;78.26;98427.56;4394191;32;34025;-77
2023/03/10 06:09:42;;;;;;;14.13;7.93;;;;;;;5.94;75.12;98416.19;4405217;32;34453;-77
2023/03/10 06:12:09;;;;;;;14.20;7.90;;;;;;;6.16;74.13;98406.81;4411813;32;33230;-79
2023/03/10 06:14:37;;;;;;;14.70;8.98;;;;;;;6.35;72.77;98409.28;4398318;32;33742;-78
2023/03/10 06:17:04;;;;;;;14.98;9.30;;;;;;;6.08;73.05;98415.13;4388030;32;32182;-79
2023/03/10 06:19:32;;;;;;;16.35;8.55;;;;;;;5.71;74.71;98423.81;4430189;32;33723;-78
2023/03/10 06:22:00;;;;;;;15.48;8.30;;;;;;;5.76;75.40;98425.75;4396799;32;33690;-80
2023/03/10 06:24:28;;;;;;;14.52;8.02;;;;;;;6.27;73.84;98421.84;4455963;32;32074;-79
2023/03/10 06:26:56;;;;;;;14.13;7.78;;;;;;;6.64;72.46;98422.38;4403585;32;33843;-78
2023/03/10 06:29:23;;;;;;;13.18;7.75;;;;;;;7.12;71.29;98416.44;4407194;32;34408;-78
2023/03/10 06:31:51;;;;;;;13.38;8.25;;;;;;;7.01;71.31;98408.31;4400086;32;34065;-78
2023/03/10 06:34:19;;;;;;;15.27;9.10;;;;;;;7.08;71.36;98402.56;4416829;32;34042;-78
2023/03/10 06:36:46;;;;;;;17.83;9.80;;;;;;;7.04;71.34;98404.16;4446775;32;33175;-78
2023/03/10 06:39:14;;;;;;;16.02;9.80;;;;;;;7.27;70.72;98396.38;4432945;32;33626;-77
2023/03/10 06:41:42;;;;;;;15.80;9.73;;;;;;;7.07;71.88;98400.84;4442403;32;33743;-78
2023/03/10 06:44:17;;;;;;;18.02;9.88;;;;;;;7.41;71.14;98399.44;4447409;32;33796;-80
2023/03/10 06:46:45;;;;;;;15.75;9.10;;;;;;;7.36;72.14;98406.13;4447282;32;33462;-79
2023/03/10 06:49:13;;;;;;;14.52;9.13;;;;;;;7.39;72.69;98406.22;4446382;32;33485;-79
2023/03/10 06:51:40;;;;;;;16.60;9.85;;;;;;;7.82;71.46;98399.94;4431388;32;33840;-79
2023/03/10 06:54:08;;;;;;;15.50;9.73;;;;;;;7.98;71.25;98397.06;4445181;32;34617;-78
2023/03/10 06:56:35;;;;;;;14.73;9.65;;;;;;;8.17;70.81;98389.91;4442612;32;33964;-79
2023/03/10 06:59:03;;;;;;;21.70;12.80;;;;;;;8.24;71.39;98391.84;4427899;32;32422;-78
2023/03/10 07:01:32;;;;;;;42.95;23.83;;;;;;;8.43;71.19;98399.38;4440996;32;32437;-78
2023/03/10 07:04:00;;;;;;;49.78;24.30;;;;;;;8.50;71.66;98396.97;4434331;32;32756;-79
2023/03/10 07:06:27;;;;;;;30.35;17.05;;;;;;;8.43;72.24;98399.38;4435579;32;33354;-78
2023/03/10 07:08:55;;;;;;;19.85;12.23;;;;;;;8.89;71.77;98388.66;4447311;32;35835;-77
2023/03/10 07:11:24;;;;;;;18.50;11.20;;;;;;;9.27;71.58;98394.00;4434504;32;33872;-78
2023/03/10 07:13:52;;;;;;;19.55;12.13;;;;;;;9.21;71.90;98393.03;4433925;32;33603;-78
2023/03/10 07:16:21;;;;;;;15.13;10.60;;;;;;;9.25;72.29;98392.28;4427259;32;33324;-80
2023/03/10 07:18:48;;;;;;;16.70;11.00;;;;;;;9.55;71.73;98388.75;4437138;32;33825;-80
2023/03/10 07:21:18;;;;;;;17.30;10.43;;;;;;;9.49;71.69;98382.56;4430818;32;33683;-79
2023/03/10 07:23:45;;;;;;;15.25;9.98;;;;;;;9.62;71.45;98385.50;4438087;32;34333;-80
2023/03/10 07:26:14;;;;;;;14.35;9.30;;;;;;;9.88;70.95;98381.81;4439870;32;33331;-79
2023/03/10 07:28:41;;;;;;;14.38;10.82;;;;;;;9.86;70.63;98386.94;4437316;32;33794;-76
2023/03/10 07:31:12;;;;;;;12.23;8.83;;;;;;;9.87;73.16;98385.22;4450993;32;34548;-76
2023/03/10 07:33:40;;;;;;;13.45;9.38;;;;;;;9.91;72.70;98387.94;4432671;32;33596;-76
2023/03/10 07:36:09;;;;;;;13.40;9.23;;;;;;;10.00;73.39;98382.97;4435320;32;34041;-77
2023/03/10 07:38:38;;;;;;;14.57;9.82;;;;;;;10.21;72.54;98384.31;4450475;32;33012;-77
2023/03/10 07:41:10;;;;;;;24.98;14.15;;;;;;;10.56;72.21;98390.31;4370224;32;32148;-77
2023/03/10 07:43:38;;;;;;;18.48;12.43;;;;;;;10.35;72.77;98379.50;4445291;32;33485;-77
2023/03/10 07:46:09;;;;;;;14.43;9.57;;;;;;;10.54;73.24;98376.47;4451441;32;33563;-77
2023/03/10 07:48:36;;;;;;;19.05;12.27;;;;;;;10.84;72.93;98369.34;4429111;32;33782;-77
2023/03/10 07:51:04;;;;;;;17.27;11.00;;;;;;;11.24;72.01;98364.94;4439239;32;33449;-78
2023/03/10 07:53:32;;;;;;;16.12;9.98;;;;;;;11.17;72.47;98354.47;4388815;32;31734;-79
2023/03/10 07:56:07;;;;;;;17.20;9.57;;;;;;;11.53;71.72;98357.69;4435594;32;33592;-79
2023/03/10 07:58:35;;;;;;;16.65;9.93;;;;;;;11.53;71.64;98353.41;4411721;32;34079;-77
2023/03/10 08:01:04;;;;;;;16.15;9.52;;;;;;;11.87;70.84;98343.56;4420610;32;33506;-78
2023/03/10 08:03:32;;;;;;;13.15;8.90;;;;;;;11.81;71.32;98348.66;4421366;32;34281;-78
2023/03/10 08:06:01;;;;;;;15.02;8.38;;;;;;;11.95;71.00;98344.59;4451985;32;33250;-76
2023/03/10 08:08:28;;;;;;;18.48;10.15;;;;;;;12.15;70.04;98346.66;4452605;32;32924;-77
2023/03/10 08:11:04;;;;;;;15.30;9.75;;;;;;;12.07;70.28;98345.66;4452260;32;33740;-78
2023/03/10 08:13:32;;;;;;;13.10;8.38;;;;;;;12.07;70.83;98335.25;4407547;32;33020;-79
2023/03/10 08:16:01;;;;;;;15.75;9.38;;;;;;;11.91;72.62;98331.56;4407029;32;33808;-77
2023/03/10 08:18:30;;;;;;;15.38;9.13;;;;;;;12.51;70.13;98316.84;4386141;32;33266;-79
2023/03/10 08:20:58;;;;;;;17.73;9.20;;;;;;;12.84;69.20;98307.72;4416245;32;33935;-79
2023/03/10 08:23:26;;;;;;;12.73;7.10;;;;;;;13.45;67.01;98316.22;4450889;32;34058;-77
2023/03/10 08:25:54;;;;;;;12.37;7.50;;;;;;;13.24;67.07;98322.03;4451696;32;33613;-75
2023/03/10 08:28:21;;;;;;;10.65;7.15;;;;;;;13.42;66.71;98310.97;4452996;32;33879;-78
2023/03/10 08:30:49;;;;;;;11.60;7.45;;;;;;;13.70;65.99;98306.91;4452420;32;34530;-78
2023/03/10 08:33:31;;;;;;;14.15;7.50;;;;;;;13.84;65.19;98309.59;4452366;32;33265;-79
2023/03/10 08:36:10;;;;;;;11.50;7.10;;;;;;;14.12;64.69;98297.66;4427002;32;33760;-76
2023/03/10 08:38:38;;;;;;;11.70;6.97;;;;;;;14.50;62.78;98301.34;4419749;32;32802;-77
2023/03/10 08:41:11;;;;;;;12.43;6.47;;;;;;;14.18;62.25;98299.44;4367339;32;34325;-77
2023/03/10 08:43:39;;;;;;;11.35;7.47;;;;;;;14.30;62.44;98293.44;4431864;32;34223;-77
2023/03/10 08:46:08;;;;;;;12.68;6.20;;;;;;;14.90;60.63;98285.91;4391406;32;34195;-78
2023/03/10 08:48:36;;;;;;;13.77;6.25;;;;;;;14.99;59.96;98279.81;4423551;32;33887;-78
2023/03/10 08:51:05;;;;;;;12.65;6.30;;;;;;;15.51;58.45;98275.59;4393671;32;33435;-78
2023/03/10 08:53:34;;;;;;;9.43;6.05;;;;;;;15.18;59.64;98276.38;4406608;32;34539;-79
2023/03/10 08:56:03;;;;;;;10.82;5.78;;;;;;;14.72;60.60;98277.16;4370048;32;33121;-79
2023/03/10 08:58:31;;;;;;;10.68;6.05;;;;;;;14.84;61.14;98270.25;4384182;32;32771;-78
2023/03/10 09:00:59;;;;;;;9.70;5.57;;;;;;;14.85;60.90;98271.97;4424894;32;33627;-78
2023/03/10 09:03:26;;;;;;;9.48;4.82;;;;;;;15.08;60.48;98259.84;4406203;32;33660;-78
2023/03/10 09:05:58;;;;;;;10.23;5.37;;;;;;;14.44;62.36;98267.44;4382024;32;32871;-77
2023/03/10 09:08:25;;;;;;;13.95;5.55;;;;;;;14.87;60.36;98265.91;4427131;32;33991;-79
2023/03/10 09:10:54;;;;;;;9.23;4.80;;;;;;;15.19;59.27;98261.63;4384467;32;34803;-79
2023/03/10 09:13:21;;;;;;;12.88;5.65;;;;;;;15.57;59.28;98252.94;4367887;32;33915;-76
2023/03/10 09:15:51;;;;;;;11.70;5.10;;;;;;;15.35;59.24;98260.75;4379759;32;33370;-77
2023/03/10 09:18:19;;;;;;;11.70;5.68;;;;;;;16.36;56.31;98257.22;4426725;32;33491;-77
2023/03/10 09:20:47;;;;;;;12.40;6.18;;;;;;;16.19;56.46;98254.66;4378696;32;34782;-77
2023/03/10 09:23:15;;;;;;;11.80;6.57;;;;;;;15.78;57.69;98253.00;4403894;32;33677;-77
2023/03/10 09:25:43;;;;;;;10.40;6.20;;;;;;;15.65;58.19;98248.63;4401676;32;34356;-77
2023/03/10 09:28:10;;;;;;;12.75;6.55;;;;;;;16.08;57.29;98236.38;4410752;32;34468;-78
2023/03/10 09:30:41;;;;;;;10.80;6.15;;;;;;;16.42;56.99;98231.06;4399650;32;32364;-77
2023/03/10 09:33:17;;;;;;;12.75;7.12;;;;;;;16.84;55.40;98233.50;4412632;32;33482;-77
2023/03/10 09:35:45;;;;;;;12.68;7.75;;;;;;;17.14;54.47;98226.34;4396900;32;33209;-75
2023/03/10 09:38:24;;;;;;;13.40;7.05;;;;;;;17.06;55.28;98219.41;4450259;32;33409;-77
2023/03/10 09:41:17;;;;;;;14.02;7.50;;;;;;;17.05;55.55;98217.66;4453680;32;34622;-76
2023/03/10 09:43:51;;;;;;;13.48;6.45;;;;;;;16.88;56.50;98219.53;4453479;32;33562;-79
2023/03/10 09:46:45;;;;;;;13.23;7.25;;;;;;;16.91;57.20;98203.81;4389063;32;34149;-77
2023/03/10 09:49:25;;;;;;;14.38;8.07;;;;;;;17.41;55.12;98199.09;4382999;32;33784;-77
2023/03/10 09:51:53;;;;;;;17.98;8.10;;;;;;;17.19;56.04;98208.84;4392043;32;34029;-78
2023/03/10 09:54:47;;;;;;;17.40;8.18;;;;;;;17.14;55.15;98210.66;4405327;32;34643;-79
2023/03/10 09:57:18;;;;;;;15.57;8.07;;;;;;;17.89;54.07;98204.81;4411316;32;33789;-77
2023/03/10 09:59:46;;;;;;;12.18;6.55;;;;;;;18.38;52.69;98200.75;4392331;32;33926;-80
2023/03/10 10:02:35;;;;;;;13.35;6.45;;;;;;;18.06;55.11;98199.41;4378326;32;33867;-79
2023/03/10 10:05:11;;;;;;;13.48;6.03;;;;;;;18.18;53.52;98178.28;4419681;32;33350;-79
2023/03/10 10:07:46;;;;;;;12.98;6.47;;;;;;;18.42;53.39;98176.22;4402721;32;32911;-77
2023/03/10 10:10:24;;;;;;;;;;;;;;;17.88;55.31;98182.97;4402809;32;34085;-77
2023/03/10 10:12:53;;;;;;;10.68;6.28;;;;;;;18.34;55.46;98178.09;4451115;32;34093;-78
2023/03/10 10:15:24;;;;;;;13.25;6.50;;;;;;;18.63;54.64;98175.09;4453777;32;34004;-76
2023/03/10 10:17:57;;;;;;;10.88;6.57;;;;;;;18.89;52.74;98169.50;4438058;32;32506;-77
2023/03/10 10:20:49;;;;;;;10.13;6.57;;;;;;;18.80;52.57;98167.03;4424147;32;34147;-78
2023/03/10 10:23:36;;;;;;;14.45;6.55;;;;;;;18.52;52.98;98156.84;4399746;32;32274;-78
2023/03/10 10:26:31;;;;;;;14.45;7.22;;;;;;;19.24;51.55;98147.94;4451087;32;33057;-79
2023/03/10 10:29:05;;;;;;;12.90;5.70;;;;;;;19.40;51.08;98134.56;4450223;32;33149;-79
2023/03/10 10:31:33;;;;;;;11.80;6.18;;;;;;;19.38;51.69;98126.72;4440205;32;34601;-77
2023/03/10 10:34:05;;;;;;;10.80;6.07;;;;;;;19.95;50.51;98130.06;4453732;32;33961;-79
2023/03/10 10:36:35;;;;;;;14.75;6.60;;;;;;;19.76;50.42;98125.19;4413143;32;33813;-78
2023/03/10 10:39:20;;;;;;;7.70;4.30;;;;;;;19.54;49.55;98121.19;4416685;32;32578;-78
2023/03/10 10:41:48;;;;;;;8.70;3.85;;;;;;;18.98;49.86;98114.25;4405220;32;33769;-78
2023/03/10 10:44:16;;;;;;;9.50;3.80;;;;;;;18.90;48.97;98110.87;4398977;32;34068;-77
2023/03/10 10:46:55;;;;;;;10.13;3.53;;;;;;;17.74;52.08;98124.59;4424132;32;33742;-79
2023/03/10 10:49:28;;;;;;;6.95;2.90;;;;;;;17.27;53.11;98121.59;4405974;32;33289;-78
2023/03/10 10:52:01;;;;;;;4.90;2.35;;;;;;;17.02;52.84;98118.31;4413673;32;34396;-79
2023/03/10 10:54:42;;;;;;;6.00;2.57;;;;;;;17.05;53.65;98102.56;4361627;32;33280;-78
2023/03/10 10:57:18;;;;;;;7.32;2.80;;;;;;;17.54;52.92;98110.84;4402720;32;33572;-79
2023/03/10 10:59:46;;;;;;;6.85;2.55;;;;;;;18.07;51.67;98096.31;4376346;32;33423;-78
2023/03/10 11:02:32;;;;;;;6.53;2.78;;;;;;;17.96;52.25;98078.09;4384501;32;33833;-77
2023/03/10 11:05:13;;;;;;;6.25;2.62;;;;;;;17.97;50.85;98073.75;4399335;32;33837;-78
2023/03/10 11:07:40;;;;;;;6.68;2.40;;;;;;;18.42;51.81;98081.84;4385872;32;33761;-79
2023/03/10 11:10:17;;;;;;;8.48;2.85;;;;;;;18.50;50.45;98074.75;4439084;32;33413;-78
2023/03/10 11:13:05;;;;;;;9.20;3.30;;;;;;;18.44;50.81;98064.34;4393820;32;34411;-78
2023/03/10 11:15:35;;;;;;;5.53;2.50;;;;;;;19.03;49.70;98059.09;4416319;32;34237;-80
2023/03/10 11:18:16;;;;;;;5.28;2.67;;;;;;;18.69;49.53;98050.87;4375930;32;33246;-78
2023/03/10 11:20:50;;;;;;;5.20;2.05;;;;;;;19.59;49.35;98043.19;4400266;32;33840;-78
2023/03/10 11:23:25;;;;;;;4.60;2.25;;;;;;;19.55;48.38;98038.91;4384551;32;33967;-79
2023/03/10 11:26:15;;;;;;;8.18;2.53;;;;;;;19.37;47.48;98043.59;4344372;32;34559;-79
2023/03/10 11:28:48;;;;;;;7.30;2.53;;;;;;;19.21;48.29;98029.03;4369247;32;33586;-79
2023/03/10 11:31:21;;;;;;;7.00;2.35;;;;;;;19.03;48.33;98033.72;4368660;32;33446;-79
2023/03/10 11:34:13;;;;;;;4.37;2.00;;;;;;;19.03;48.25;98023.22;4366526;32;33633;-80
2023/03/10 11:36:56;;;;;;;6.45;2.12;;;;;;;18.88;48.20;98018.22;4385737;32;34360;-79
2023/03/10 11:39:50;;;;;;;8.27;2.08;;;;;;;19.05;47.50;98005.69;4385298;32;34311;-80
2023/03/10 11:42:32;;;;;;;6.50;2.37;;;;;;;19.26;47.50;98000.94;4385787;32;33956;-78
2023/03/10 11:45:22;;;;;;;6.95;2.25;;;;;;;20.01;47.12;98002.03;4369070;32;34173;-79
2023/03/10 11:47:53;;;;;;;6.40;2.28;;;;;;;19.30;46.82;97999.13;4366150;32;33747;-77
2023/03/10 11:50:39;;;;;;;8.55;3.80;;;;;;;20.70;45.04;97982.94;4390705;32;33742;-80